Time;durP1;ratioP1;P1;durP2;ratioP2;P2;SDS_P1;SDS_P2;PMS_P1;PMS_P2;Temp;Humidity;BMP_temperature;BMP_pressure;BME280_temperature;BME280_humidity;BME280_pressure;Samples;Min_cycle;Max_cycle;Signal;HPM_P1;HPM_P2
2024/04/09 01:03:53;;;;;;;12.48;9.75;;;;;;;;;;5402680;26;20415;-44
2024/04/09 01:06:20;;;;;;;11.70;9.27;;;;;;;;;;5409196;26;20003;-43
2024/04/09 01:08:46;;;;;;;12.75;9.80;;;;;;;;;;5404899;26;20096;-46
2024/04/09 01:11:53;;;;;;;12.18;9.15;;;;;;;;;;5374862;26;22645;-42
2024/04/09 01:14:20;;;;;;;12.55;8.75;;;;;;;;;;5357514;26;19997;-42
2024/04/09 01:22:16;;;;;;;12.85;10.05;;;;;;;;;;5369427;26;20356;-41
2024/04/09 01:34:11;;;;;;;9.52;7.05;;;;;;;;;;5392293;25;20457;-45
2024/04/09 01:55:11;;;;;;;6.10;5.03;;;;;;;;;;5394282;25;20422;-47
2024/04/09 01:57:39;;;;;;;7.38;5.47;;;;;;;;;;5344002;26;20650;-50
2024/04/09 02:00:11;;;;;;;5.95;4.63;;;;;;;;;;5338978;26;20005;-46
2024/04/09 02:02:39;;;;;;;6.72;5.38;;;;;;;;;;5340749;26;20020;-48
2024/04/09 02:05:08;;;;;;;6.43;5.00;;;;;;;;;;5339467;26;20016;-49
2024/04/09 02:07:34;;;;;;;7.00;5.18;;;;;;;;;;5338707;26;20009;-49
2024/04/09 02:10:01;;;;;;;5.88;4.90;;;;;;;;;;5338880;26;20009;-49
2024/04/09 02:12:29;;;;;;;5.65;5.05;;;;;;;;;;5338572;26;20015;-47
2024/04/09 02:14:56;;;;;;;7.00;5.00;;;;;;;;;;5339081;26;20036;-48
2024/04/09 02:17:23;;;;;;;5.20;4.13;;;;;;;;;;5338584;26;20032;-47
2024/04/09 02:19:49;;;;;;;6.50;4.45;;;;;;;;;;5340012;26;20008;-47
2024/04/09 02:22:16;;;;;;;5.78;4.78;;;;;;;;;;5338377;26;20059;-47
2024/04/09 02:24:43;;;;;;;6.18;4.45;;;;;;;;;;5337713;26;20446;-48
2024/04/09 02:27:09;;;;;;;6.30;4.57;;;;;;;;;;5339264;26;20016;-49
2024/04/09 02:29:36;;;;;;;5.40;4.40;;;;;;;;;;5338563;26;20094;-46
2024/04/09 02:32:03;;;;;;;5.25;4.18;;;;;;;;;;5338682;26;20024;-52
2024/04/09 02:34:35;;;;;;;5.40;3.95;;;;;;;;;;5338049;26;20001;-55
2024/04/09 02:37:05;;;;;;;4.72;3.95;;;;;;;;;;5339041;26;20005;-58
2024/04/09 02:39:32;;;;;;;6.05;4.00;;;;;;;;;;5339070;26;20013;-56
2024/04/09 02:42:03;;;;;;;4.68;3.65;;;;;;;;;;5337722;26;20012;-56
2024/04/09 02:44:30;;;;;;;5.75;3.53;;;;;;;;;;5339751;26;20012;-57
2024/04/09 02:46:57;;;;;;;3.92;3.40;;;;;;;;;;5339114;26;20333;-58
2024/04/09 02:49:24;;;;;;;4.15;3.47;;;;;;;;;;5338055;26;20005;-60
2024/04/09 02:51:50;;;;;;;5.28;3.50;;;;;;;;;;5337383;26;20061;-53
2024/04/09 02:54:17;;;;;;;4.30;3.30;;;;;;;;;;5337522;26;20025;-55
2024/04/09 02:56:43;;;;;;;3.65;3.20;;;;;;;;;;5338072;26;20027;-55
2024/04/09 02:59:11;;;;;;;3.70;3.22;;;;;;;;;;5337391;26;20333;-51
2024/04/09 03:01:38;;;;;;;4.68;3.47;;;;;;;;;;5337695;26;22192;-57
2024/04/09 03:04:04;;;;;;;3.88;3.35;;;;;;;;;;5337557;26;20008;-53
2024/04/09 03:06:31;;;;;;;3.08;2.65;;;;;;;;;;5324671;26;20008;-52
2024/04/09 03:08:58;;;;;;;3.97;2.83;;;;;;;;;;5322892;26;20009;-48
2024/04/09 03:11:25;;;;;;;3.13;2.67;;;;;;;;;;5320929;26;20016;-56
2024/04/09 03:13:51;;;;;;;4.20;2.70;;;;;;;;;;5324080;26;20103;-52
2024/04/09 03:16:19;;;;;;;3.45;2.40;;;;;;;;;;5324002;26;20040;-51
2024/04/09 03:18:47;;;;;;;3.15;2.47;;;;;;;;;;5323290;26;20008;-51
2024/04/09 03:21:13;;;;;;;24.70;18.75;;;;;;;;;;5323051;26;20100;-52
2024/04/09 03:23:41;;;;;;;47.97;26.00;;;;;;;;;;5322771;26;20031;-54
2024/04/09 03:26:07;;;;;;;68.60;32.13;;;;;;;;;;5322876;26;20008;-54
2024/04/09 03:28:34;;;;;;;93.90;44.75;;;;;;;;;;5321755;26;20102;-54
2024/04/09 03:31:02;;;;;;;113.22;55.25;;;;;;;;;;5323216;26;20075;-57
2024/04/09 03:33:29;;;;;;;143.10;72.22;;;;;;;;;;5323442;26;20008;-54
2024/04/09 03:35:57;;;;;;;168.52;82.05;;;;;;;;;;5321688;26;20009;-55
2024/04/09 03:38:24;;;;;;;198.30;98.00;;;;;;;;;;5318264;26;20005;-54
2024/04/09 03:40:57;;;;;;;197.93;99.53;;;;;;;;;;5350011;26;20017;-56
2024/04/09 03:43:24;;;;;;;204.18;99.68;;;;;;;;;;5319751;26;20079;-59
2024/04/09 03:46:06;;;;;;;197.18;97.57;;;;;;;;;;5322217;26;20523;-58
2024/04/09 03:48:37;;;;;;;202.88;97.65;;;;;;;;;;5323086;26;20003;-58
2024/04/09 03:51:04;;;;;;;193.68;93.22;;;;;;;;;;5322292;26;20013;-56
2024/04/09 03:53:31;;;;;;;190.95;92.22;;;;;;;;;;5322559;26;20017;-60
2024/04/09 03:56:02;;;;;;;184.80;90.57;;;;;;;;;;5322201;26;20008;-58
2024/04/09 03:58:30;;;;;;;192.15;92.03;;;;;;;;;;5320945;26;20354;-58
2024/04/09 04:01:00;;;;;;;183.98;89.63;;;;;;;;;;5320987;26;20016;-48
2024/04/09 04:03:27;;;;;;;181.60;90.05;;;;;;;;;;5320968;26;20354;-49
2024/04/09 04:05:55;;;;;;;174.95;83.13;;;;;;;;;;5319886;26;20378;-52
2024/04/09 04:08:32;;;;;;;176.65;82.28;;;;;;;;;;5321733;26;20001;-54
2024/04/09 04:11:05;;;;;;;168.13;79.95;;;;;;;;;;5323109;26;20017;-56
2024/04/09 04:13:33;;;;;;;157.35;73.80;;;;;;;;;;5320699;26;19996;-52
2024/04/09 04:16:04;;;;;;;160.77;77.20;;;;;;;;;;5321809;26;20001;-55
2024/04/09 04:18:37;;;;;;;152.77;74.22;;;;;;;;;;5320807;26;20030;-53
2024/04/09 04:21:05;;;;;;;142.52;68.88;;;;;;;;;;5321777;26;20008;-54
2024/04/09 04:23:31;;;;;;;134.38;65.13;;;;;;;;;;5320959;26;20444;-56
2024/04/09 04:25:58;;;;;;;133.48;63.13;;;;;;;;;;5321810;26;20012;-57
2024/04/09 04:28:24;;;;;;;127.32;60.50;;;;;;;;;;5321269;26;20016;-59
2024/04/09 04:30:51;;;;;;;125.20;58.72;;;;;;;;;;5321204;26;19993;-58
2024/04/09 04:33:18;;;;;;;122.50;59.17;;;;;;;;;;5320902;26;19997;-55
2024/04/09 04:35:45;;;;;;;115.03;55.70;;;;;;;;;;5321426;26;20001;-56
2024/04/09 04:38:12;;;;;;;111.90;53.97;;;;;;;;;;5322035;26;20538;-51
2024/04/09 04:40:38;;;;;;;108.50;52.67;;;;;;;;;;5320063;26;20075;-57
2024/04/09 04:43:05;;;;;;;100.60;49.08;;;;;;;;;;5323284;26;20041;-56
2024/04/09 04:45:32;;;;;;;97.32;46.92;;;;;;;;;;5321264;26;20352;-56
2024/04/09 04:47:59;;;;;;;93.07;45.40;;;;;;;;;;5321645;26;20041;-52
2024/04/09 04:50:26;;;;;;;91.10;44.53;;;;;;;;;;5321562;26;20353;-56
2024/04/09 04:52:52;;;;;;;86.05;42.85;;;;;;;;;;5322128;26;20003;-57
2024/04/09 04:55:19;;;;;;;83.10;41.03;;;;;;;;;;5322306;26;20004;-56
2024/04/09 04:57:45;;;;;;;77.20;38.50;;;;;;;;;;5352859;26;20004;-57
2024/04/09 05:00:14;;;;;;;79.30;38.92;;;;;;;;;;5355366;26;20012;-57
2024/04/09 05:02:41;;;;;;;74.97;38.00;;;;;;;;;;5357070;26;20003;-55
2024/04/09 05:05:08;;;;;;;74.32;36.75;;;;;;;;;;5357740;26;20101;-56
2024/04/09 05:07:36;;;;;;;68.63;34.90;;;;;;;;;;5355906;26;20073;-54
2024/04/09 05:10:04;;;;;;;66.25;33.95;;;;;;;;;;5383422;26;20008;-57
2024/04/09 05:12:32;;;;;;;62.38;32.83;;;;;;;;;;5354529;26;20012;-54
2024/04/09 05:14:58;;;;;;;62.38;31.15;;;;;;;;;;5356362;26;20000;-50
2024/04/09 05:17:25;;;;;;;59.67;31.85;;;;;;;;;;5356444;26;20012;-58
2024/04/09 05:19:52;;;;;;;58.17;29.27;;;;;;;;;;5355038;26;20008;-50
2024/04/09 05:22:23;;;;;;;59.10;30.35;;;;;;;;;;5356977;26;20032;-53
2024/04/09 05:24:51;;;;;;;52.40;27.73;;;;;;;;;;5321329;26;20016;-53
2024/04/09 05:27:18;;;;;;;48.40;25.52;;;;;;;;;;5282526;26;20005;-53
2024/04/09 05:29:44;;;;;;;50.72;25.92;;;;;;;;;;5319705;26;20722;-55
2024/04/09 05:32:11;;;;;;;46.08;24.15;;;;;;;;;;5321881;26;20019;-55
2024/04/09 05:34:38;;;;;;;47.50;24.52;;;;;;;;;;5321999;26;20416;-57
2024/04/09 05:37:04;;;;;;;44.72;22.35;;;;;;;;;;5320802;26;20008;-55
2024/04/09 05:39:31;;;;;;;41.70;22.10;;;;;;;;;;5319508;26;20005;-56
2024/04/09 05:41:58;;;;;;;41.30;20.70;;;;;;;;;;5299101;26;20080;-56
2024/04/09 05:44:24;;;;;;;37.45;20.15;;;;;;;;;;5321197;26;20001;-53
2024/04/09 05:46:51;;;;;;;36.83;18.95;;;;;;;;;;5319855;26;20009;-56
2024/04/09 05:49:22;;;;;;;34.00;17.45;;;;;;;;;;5319409;26;20041;-57
2024/04/09 05:51:49;;;;;;;34.67;17.10;;;;;;;;;;5319802;26;20001;-55
2024/04/09 05:54:19;;;;;;;34.17;17.95;;;;;;;;;;5320442;26;20010;-57
2024/04/09 05:56:49;;;;;;;31.23;16.65;;;;;;;;;;5320454;26;20005;-57
2024/04/09 05:59:16;;;;;;;32.22;16.77;;;;;;;;;;5320537;26;20016;-58
2024/04/09 06:01:42;;;;;;;32.22;17.05;;;;;;;;;;5318799;26;20334;-58
2024/04/09 06:04:09;;;;;;;28.38;15.63;;;;;;;;;;5319391;26;20016;-51
2024/04/09 06:06:36;;;;;;;26.63;14.80;;;;;;;;;;5320678;26;20019;-57
2024/04/09 06:09:03;;;;;;;27.42;14.85;;;;;;;;;;5320655;26;20012;-54
2024/04/09 06:11:30;;;;;;;24.63;13.50;;;;;;;;;;5318443;26;20807;-55
2024/04/09 06:13:57;;;;;;;25.08;12.90;;;;;;;;;;5320296;26;20094;-55
2024/04/09 06:16:23;;;;;;;25.42;14.25;;;;;;;;;;5320006;26;19997;-56
2024/04/09 06:18:50;;;;;;;24.63;13.88;;;;;;;;;;5320990;26;20429;-52
2024/04/09 06:21:16;;;;;;;23.58;12.65;;;;;;;;;;5320099;26;20048;-54
2024/04/09 06:23:45;;;;;;;22.15;12.43;;;;;;;;;;5282547;26;20094;-56
2024/04/09 06:26:14;;;;;;;21.70;11.80;;;;;;;;;;5295610;26;20001;-53
2024/04/09 06:28:41;;;;;;;21.15;12.07;;;;;;;;;;5319548;26;20012;-53
2024/04/09 06:31:07;;;;;;;19.05;10.23;;;;;;;;;;5318194;26;20012;-56
2024/04/09 06:33:34;;;;;;;18.10;10.32;;;;;;;;;;5318959;26;22214;-51
2024/04/09 06:36:01;;;;;;;18.27;10.48;;;;;;;;;;5284079;26;20455;-54
2024/04/09 06:38:28;;;;;;;17.98;9.93;;;;;;;;;;5320204;26;20053;-52
2024/04/09 06:40:55;;;;;;;17.33;9.73;;;;;;;;;;5320946;26;20087;-51
2024/04/09 06:43:21;;;;;;;16.15;9.15;;;;;;;;;;5322066;26;20001;-50
2024/04/09 06:45:48;;;;;;;15.88;8.60;;;;;;;;;;5324538;26;20013;-49
2024/04/09 06:48:15;;;;;;;14.45;7.63;;;;;;;;;;5323752;26;20033;-53
2024/04/09 06:50:42;;;;;;;13.88;7.63;;;;;;;;;;5322214;26;20024;-49
2024/04/09 06:53:08;;;;;;;15.18;8.00;;;;;;;;;;5323141;26;20017;-51
2024/04/09 06:55:35;;;;;;;13.65;7.78;;;;;;;;;;5298395;26;22140;-51
2024/04/09 06:58:02;;;;;;;12.65;7.50;;;;;;;;;;5323086;26;19996;-51
2024/04/09 07:00:28;;;;;;;13.25;7.72;;;;;;;;;;5322599;26;20015;-49
2024/04/09 07:02:55;;;;;;;13.32;7.40;;;;;;;;;;5324439;26;20020;-48
2024/04/09 07:05:22;;;;;;;11.57;6.82;;;;;;;;;;5324759;26;20013;-51
2024/04/09 07:07:48;;;;;;;12.63;6.75;;;;;;;;;;5321076;26;20103;-52
2024/04/09 07:10:15;;;;;;;10.68;6.35;;;;;;;;;;5323280;26;20001;-50
2024/04/09 07:12:42;;;;;;;10.10;5.60;;;;;;;;;;5322737;26;20001;-51
2024/04/09 07:15:10;;;;;;;11.00;5.55;;;;;;;;;;5323552;26;20337;-49
2024/04/09 07:17:37;;;;;;;8.95;5.18;;;;;;;;;;5298347;26;20094;-50
2024/04/09 07:20:04;;;;;;;9.45;5.75;;;;;;;;;;5322821;26;20491;-52
2024/04/09 07:22:30;;;;;;;12.07;5.63;;;;;;;;;;5321286;26;20029;-48
2024/04/09 07:24:57;;;;;;;9.02;5.07;;;;;;;;;;5324691;26;20052;-50
2024/04/09 07:27:23;;;;;;;9.25;5.47;;;;;;;;;;5323166;26;20001;-52
2024/04/09 07:29:50;;;;;;;9.07;4.93;;;;;;;;;;5299360;26;20321;-49
2024/04/09 07:32:17;;;;;;;7.97;4.35;;;;;;;;;;5329650;26;20005;-50
2024/04/09 07:34:46;;;;;;;7.05;4.22;;;;;;;;;;5323576;26;20523;-53
2024/04/09 07:37:12;;;;;;;7.00;4.22;;;;;;;;;;5322465;26;20005;-52
2024/04/09 07:39:39;;;;;;;6.85;4.28;;;;;;;;;;5322976;26;20029;-50
2024/04/09 07:42:06;;;;;;;7.85;4.30;;;;;;;;;;5322505;26;20005;-50
2024/04/09 07:44:33;;;;;;;7.35;4.18;;;;;;;;;;5323629;26;20039;-51
2024/04/09 07:47:00;;;;;;;7.00;4.07;;;;;;;;;;5323721;26;20008;-52
2024/04/09 07:49:26;;;;;;;6.90;3.90;;;;;;;;;;5322466;26;20027;-54
2024/04/09 07:51:53;;;;;;;7.22;4.10;;;;;;;;;;5323048;26;20001;-50
2024/04/09 07:54:20;;;;;;;4.85;2.90;;;;;;;;;;5323408;26;20013;-52
2024/04/09 07:56:46;;;;;;;5.05;3.30;;;;;;;;;;5323357;26;20001;-50
2024/04/09 07:59:13;;;;;;;5.82;3.42;;;;;;;;;;5323434;26;20016;-52
2024/04/09 08:01:40;;;;;;;5.97;3.60;;;;;;;;;;5322723;26;20601;-51
2024/04/09 08:04:07;;;;;;;4.75;2.90;;;;;;;;;;5325608;26;20005;-52
2024/04/09 08:06:44;;;;;;;6.30;3.38;;;;;;;;;;5321733;26;20055;-51
2024/04/09 08:09:17;;;;;;;5.28;3.13;;;;;;;;;;5283514;26;19997;-53
2024/04/09 08:11:44;;;;;;;5.68;3.40;;;;;;;;;;5320070;26;19993;-50
2024/04/09 08:14:12;;;;;;;5.63;3.28;;;;;;;;;;5323031;26;20383;-51
2024/04/09 08:16:43;;;;;;;5.15;3.08;;;;;;;;;;5293613;26;20005;-50
2024/04/09 08:19:14;;;;;;;4.50;2.40;;;;;;;;;;5320865;26;20747;-51
2024/04/09 08:21:41;;;;;;;4.20;2.40;;;;;;;;;;5322544;26;20468;-49
2024/04/09 08:24:07;;;;;;;4.20;2.30;;;;;;;;;;5322291;26;20706;-51
2024/04/09 08:26:35;;;;;;;3.65;2.38;;;;;;;;;;5321551;26;20052;-51
2024/04/09 08:29:08;;;;;;;3.92;2.58;;;;;;;;;;5351080;26;20020;-52
2024/04/09 08:31:35;;;;;;;3.50;2.38;;;;;;;;;;5322217;26;20027;-48
2024/04/09 08:34:04;;;;;;;3.58;2.10;;;;;;;;;;5321546;26;20025;-48
2024/04/09 08:36:31;;;;;;;3.85;2.05;;;;;;;;;;5328146;26;20008;-51
2024/04/09 08:38:58;;;;;;;3.53;2.25;;;;;;;;;;5322376;26;20019;-51
2024/04/09 08:41:28;;;;;;;2.47;1.48;;;;;;;;;;5323708;26;20008;-53
2024/04/09 08:43:56;;;;;;;3.42;2.00;;;;;;;;;;5323009;26;20001;-49
2024/04/09 08:46:23;;;;;;;3.42;2.10;;;;;;;;;;5320670;26;20047;-51
2024/04/09 08:48:51;;;;;;;2.70;1.80;;;;;;;;;;5322230;26;20014;-50
2024/04/09 08:51:18;;;;;;;3.15;1.70;;;;;;;;;;5321633;26;22155;-51
2024/04/09 08:53:45;;;;;;;3.10;1.90;;;;;;;;;;5321643;26;20100;-51
2024/04/09 08:56:12;;;;;;;3.15;1.67;;;;;;;;;;5322036;26;20005;-52
2024/04/09 08:58:38;;;;;;;3.10;1.83;;;;;;;;;;5321487;26;20028;-50
2024/04/09 09:01:05;;;;;;;2.45;1.55;;;;;;;;;;5320512;26;20012;-51
2024/04/09 09:03:32;;;;;;;3.00;1.70;;;;;;;;;;5321041;26;20786;-49
2024/04/09 09:06:00;;;;;;;2.22;1.50;;;;;;;;;;5321887;26;19997;-55
2024/04/09 09:08:26;;;;;;;3.00;1.90;;;;;;;;;;5319938;26;20005;-50
2024/04/09 09:10:56;;;;;;;2.05;1.55;;;;;;;;;;5321469;26;20015;-53
2024/04/09 09:13:23;;;;;;;2.63;1.65;;;;;;;;;;5322014;26;20056;-54
2024/04/09 09:15:56;;;;;;;2.30;1.55;;;;;;;;;;5321102;26;20009;-51
2024/04/09 09:18:24;;;;;;;2.10;1.42;;;;;;;;;;5320128;26;20045;-51
2024/04/09 09:21:03;;;;;;;1.88;1.30;;;;;;;;;;5322643;26;20426;-53
2024/04/09 09:23:33;;;;;;;2.25;1.50;;;;;;;;;;5321282;26;20083;-53
2024/04/09 09:26:02;;;;;;;2.92;1.55;;;;;;;;;;5320911;26;20090;-53
2024/04/09 09:28:29;;;;;;;2.45;1.38;;;;;;;;;;5321023;26;20009;-50
2024/04/09 09:30:56;;;;;;;1.70;1.10;;;;;;;;;;5322415;26;19996;-53
2024/04/09 09:33:26;;;;;;;1.73;1.20;;;;;;;;;;5320120;26;20111;-55
2024/04/09 09:35:53;;;;;;;2.17;1.25;;;;;;;;;;5322772;26;20012;-49
2024/04/09 09:38:21;;;;;;;1.40;1.05;;;;;;;;;;5322998;26;20050;-54
2024/04/09 09:40:49;;;;;;;2.13;1.30;;;;;;;;;;5321337;26;20103;-53
2024/04/09 09:43:19;;;;;;;2.40;1.45;;;;;;;;;;5319778;26;20437;-52
2024/04/09 09:45:47;;;;;;;1.77;1.10;;;;;;;;;;5320506;26;20075;-53
2024/04/09 09:48:16;;;;;;;1.55;1.05;;;;;;;;;;5322225;26;20001;-50
2024/04/09 09:50:43;;;;;;;1.42;1.00;;;;;;;;;;5321502;26;20343;-52
2024/04/09 09:53:10;;;;;;;1.80;1.27;;;;;;;;;;5321921;26;20906;-52
2024/04/09 09:55:37;;;;;;;2.08;1.17;;;;;;;;;;5320643;26;22325;-51
2024/04/09 09:58:03;;;;;;;1.50;1.00;;;;;;;;;;5320897;26;20008;-52
2024/04/09 10:00:31;;;;;;;1.73;1.08;;;;;;;;;;5319590;26;20400;-50
2024/04/09 10:02:58;;;;;;;1.50;1.20;;;;;;;;;;5320525;26;20091;-51
2024/04/09 10:05:31;;;;;;;1.65;0.95;;;;;;;;;;5320749;26;20562;-53
2024/04/09 10:08:01;;;;;;;1.30;0.90;;;;;;;;;;5321189;26;20007;-51
2024/04/09 10:10:28;;;;;;;1.17;0.90;;;;;;;;;;5319775;26;20005;-53
2024/04/09 10:12:54;;;;;;;1.77;1.00;;;;;;;;;;5321154;26;20350;-50
2024/04/09 10:15:27;;;;;;;1.40;1.13;;;;;;;;;;5321349;26;20007;-51
2024/04/09 10:18:04;;;;;;;1.35;0.80;;;;;;;;;;5323156;26;20008;-52
2024/04/09 10:20:31;;;;;;;1.95;1.02;;;;;;;;;;5323348;26;20074;-50
2024/04/09 10:23:05;;;;;;;1.00;0.60;;;;;;;;;;5323617;26;20001;-50
2024/04/09 10:25:41;;;;;;;1.92;1.10;;;;;;;;;;5323634;26;20827;-54
2024/04/09 10:28:10;;;;;;;0.90;0.70;;;;;;;;;;5324589;26;20012;-51
2024/04/09 10:30:40;;;;;;;1.25;0.70;;;;;;;;;;5322260;26;20001;-49
2024/04/09 10:33:08;;;;;;;1.20;0.77;;;;;;;;;;5323554;26;20074;-54
2024/04/09 10:35:34;;;;;;;1.88;0.93;;;;;;;;;;5318889;26;20033;-51
2024/04/09 10:38:05;;;;;;;1.27;0.88;;;;;;;;;;5324033;26;20008;-49
2024/04/09 10:40:35;;;;;;;1.67;0.90;;;;;;;;;;5322725;26;20001;-51
2024/04/09 10:43:02;;;;;;;1.00;0.70;;;;;;;;;;5322477;26;19997;-50
2024/04/09 10:45:29;;;;;;;1.30;0.90;;;;;;;;;;5323892;26;20322;-50
2024/04/09 10:47:57;;;;;;;0.90;0.77;;;;;;;;;;5323198;26;20005;-50
2024/04/09 10:50:24;;;;;;;0.63;0.43;;;;;;;;;;5322958;26;19997;-49
2024/04/09 10:52:50;;;;;;;0.68;0.50;;;;;;;;;;5323690;26;20009;-50
2024/04/09 10:55:17;;;;;;;1.55;0.80;;;;;;;;;;5323386;26;20991;-54
2024/04/09 10:57:51;;;;;;;0.73;0.63;;;;;;;;;;5322072;26;19997;-49
2024/04/09 11:00:18;;;;;;;0.90;0.60;;;;;;;;;;5322129;26;20005;-51
2024/04/09 11:02:45;;;;;;;1.15;0.60;;;;;;;;;;5321706;26;20001;-49
2024/04/09 11:05:12;;;;;;;0.70;0.60;;;;;;;;;;5325040;26;20012;-51
2024/04/09 11:07:40;;;;;;;0.75;0.60;;;;;;;;;;5324320;26;20493;-54
2024/04/09 11:10:08;;;;;;;0.98;0.80;;;;;;;;;;5324031;26;20052;-52
2024/04/09 11:12:38;;;;;;;0.65;0.50;;;;;;;;;;5324375;26;20047;-54
2024/04/09 11:15:05;;;;;;;0.80;0.52;;;;;;;;;;5321715;26;20052;-52
2024/04/09 11:17:33;;;;;;;0.90;0.70;;;;;;;;;;5330181;26;22394;-52
2024/04/09 11:20:10;;;;;;;0.65;0.55;;;;;;;;;;5379931;26;20012;-52
2024/04/09 11:22:36;;;;;;;;;;;;;;;;;;5323071;26;20083;-54
2024/04/09 11:25:04;;;;;;;0.90;0.52;;;;;;;;;;5323226;26;19966;-51
2024/04/09 11:27:31;;;;;;;0.93;0.77;;;;;;;;;;5321745;26;20016;-51
2024/04/09 11:29:57;;;;;;;0.73;0.50;;;;;;;;;;5323152;26;20045;-55
2024/04/09 11:32:24;;;;;;;0.75;0.47;;;;;;;;;;5321829;26;20004;-50
2024/04/09 11:34:51;;;;;;;0.95;0.50;;;;;;;;;;5323095;26;20079;-54
2024/04/09 11:37:21;;;;;;;0.93;0.50;;;;;;;;;;5324884;26;20001;-52
2024/04/09 11:39:47;;;;;;;0.63;0.40;;;;;;;;;;5324280;26;20491;-55
2024/04/09 11:42:14;;;;;;;0.98;0.52;;;;;;;;;;5323507;26;20044;-55
2024/04/09 11:44:41;;;;;;;1.08;0.40;;;;;;;;;;5321953;26;20013;-53
2024/04/09 11:47:07;;;;;;;0.47;0.47;;;;;;;;;;5323550;26;20017;-51
2024/04/09 11:49:34;;;;;;;0.60;0.35;;;;;;;;;;5321024;26;20017;-52
2024/04/09 11:52:01;;;;;;;0.80;0.55;;;;;;;;;;5350402;26;20044;-50
2024/04/09 11:54:27;;;;;;;0.75;0.40;;;;;;;;;;5320395;26;20033;-51
2024/04/09 11:56:54;;;;;;;1.23;0.40;;;;;;;;;;5321871;26;20433;-54
2024/04/09 11:59:20;;;;;;;0.45;0.35;;;;;;;;;;5321054;26;20091;-51
2024/04/09 12:01:47;;;;;;;0.60;0.40;;;;;;;;;;5282964;26;20016;-51
2024/04/09 12:04:15;;;;;;;0.82;0.47;;;;;;;;;;5321937;26;20009;-53
2024/04/09 12:06:42;;;;;;;1.15;0.40;;;;;;;;;;5320832;26;20009;-54
2024/04/09 12:09:09;;;;;;;0.90;0.55;;;;;;;;;;5322948;26;20009;-54
2024/04/09 12:11:38;;;;;;;0.40;0.40;;;;;;;;;;5320534;26;20472;-57
2024/04/09 12:14:05;;;;;;;0.70;0.40;;;;;;;;;;5321311;26;20123;-53
2024/04/09 12:16:31;;;;;;;0.57;0.40;;;;;;;;;;5323032;26;20005;-49
2024/04/09 12:18:58;;;;;;;0.73;0.40;;;;;;;;;;5323829;26;20044;-53
2024/04/09 12:21:25;;;;;;;0.60;0.45;;;;;;;;;;5322324;26;20033;-54
2024/04/09 12:23:51;;;;;;;0.55;0.40;;;;;;;;;;5321368;26;20009;-51
2024/04/09 12:26:18;;;;;;;0.40;0.30;;;;;;;;;;5322127;26;20009;-52
2024/04/09 12:28:45;;;;;;;0.93;0.43;;;;;;;;;;5321419;26;20145;-51
2024/04/09 12:31:11;;;;;;;1.73;0.75;;;;;;;;;;5322301;26;19993;-53
2024/04/09 12:33:38;;;;;;;0.88;0.60;;;;;;;;;;5319302;26;20020;-55
2024/04/09 12:36:05;;;;;;;1.05;0.77;;;;;;;;;;5321824;26;20044;-52
2024/04/09 12:38:31;;;;;;;1.70;0.90;;;;;;;;;;5319552;26;20012;-51
2024/04/09 12:40:58;;;;;;;1.70;0.70;;;;;;;;;;5323335;26;20009;-53
2024/04/09 12:43:24;;;;;;;1.38;0.90;;;;;;;;;;5319749;26;20016;-53
2024/04/09 12:45:52;;;;;;;0.90;0.80;;;;;;;;;;5322098;26;20007;-51
2024/04/09 12:48:22;;;;;;;2.00;1.35;;;;;;;;;;5322167;26;21152;-55
2024/04/09 12:50:48;;;;;;;1.73;1.45;;;;;;;;;;5321775;26;19997;-52
2024/04/09 12:53:15;;;;;;;1.83;1.50;;;;;;;;;;5321040;26;20013;-54
2024/04/09 12:55:43;;;;;;;2.20;1.70;;;;;;;;;;5321270;26;20023;-52
2024/04/09 12:58:10;;;;;;;2.40;1.85;;;;;;;;;;5323883;26;20079;-56
2024/04/09 13:00:37;;;;;;;3.70;2.08;;;;;;;;;;5321021;26;20001;-50
2024/04/09 13:03:04;;;;;;;3.55;2.10;;;;;;;;;;5321740;26;20005;-49
2024/04/09 13:05:30;;;;;;;3.65;2.00;;;;;;;;;;5320982;26;20049;-50
2024/04/09 13:07:57;;;;;;;3.33;2.42;;;;;;;;;;5321047;26;20011;-52
2024/04/09 13:10:24;;;;;;;2.65;2.28;;;;;;;;;;5323290;26;20040;-50
2024/04/09 13:12:50;;;;;;;3.25;2.53;;;;;;;;;;5321796;26;20016;-53
2024/04/09 13:15:17;;;;;;;3.42;2.97;;;;;;;;;;5321693;26;20085;-54
2024/04/09 13:17:44;;;;;;;3.63;3.20;;;;;;;;;;5321741;26;20035;-52
2024/04/09 13:20:10;;;;;;;4.40;3.33;;;;;;;;;;5322288;26;20013;-53
2024/04/09 13:22:37;;;;;;;4.80;3.63;;;;;;;;;;5320939;26;20392;-51
2024/04/09 13:25:04;;;;;;;4.28;3.35;;;;;;;;;;5321568;26;20017;-55
2024/04/09 13:27:30;;;;;;;4.43;3.72;;;;;;;;;;5321084;26;21206;-53
2024/04/09 13:29:59;;;;;;;5.60;3.58;;;;;;;;;;5322379;26;20023;-51
2024/04/09 13:32:25;;;;;;;4.35;3.63;;;;;;;;;;5320534;26;20009;-54
2024/04/09 13:34:52;;;;;;;6.22;4.53;;;;;;;;;;5321273;26;20012;-55
2024/04/09 13:37:19;;;;;;;10.80;6.82;;;;;;;;;;5321965;26;20011;-54
2024/04/09 13:39:46;;;;;;;23.70;13.80;;;;;;;;;;5318584;26;22179;-54
2024/04/09 13:42:12;;;;;;;30.38;17.77;;;;;;;;;;5343878;26;20064;-52
2024/04/09 13:44:39;;;;;;;36.30;22.48;;;;;;;;;;5319909;26;20052;-55
2024/04/09 13:47:06;;;;;;;40.53;24.92;;;;;;;;;;5321153;26;20008;-55
2024/04/09 13:49:32;;;;;;;55.55;31.45;;;;;;;;;;5321322;26;20041;-52
2024/04/09 13:51:59;;;;;;;74.88;45.95;;;;;;;;;;5322300;26;20094;-52
2024/04/09 13:54:26;;;;;;;95.45;57.55;;;;;;;;;;5319470;26;20075;-52
2024/04/09 13:56:52;;;;;;;103.20;65.78;;;;;;;;;;5322309;26;20019;-52
2024/04/09 13:59:19;;;;;;;107.78;66.85;;;;;;;;;;5301910;26;20001;-54
2024/04/09 14:01:45;;;;;;;111.47;70.80;;;;;;;;;;5325850;26;20003;-52
2024/04/09 14:04:14;;;;;;;111.55;71.10;;;;;;;;;;5354804;26;20023;-56
2024/04/09 14:06:41;;;;;;;109.40;69.03;;;;;;;;;;5354223;26;20011;-54
2024/04/09 14:09:08;;;;;;;108.20;67.75;;;;;;;;;;5356116;26;20015;-55
2024/04/09 14:11:35;;;;;;;104.15;67.00;;;;;;;;;;5354832;26;20022;-55
2024/04/09 14:14:02;;;;;;;105.75;65.13;;;;;;;;;;5353717;26;20043;-53
2024/04/09 14:16:29;;;;;;;100.75;64.15;;;;;;;;;;5355062;26;20421;-56
2024/04/09 14:18:55;;;;;;;96.95;61.95;;;;;;;;;;5356514;26;20748;-51
2024/04/09 14:21:22;;;;;;;98.85;60.92;;;;;;;;;;5354609;26;20000;-56
2024/04/09 14:23:49;;;;;;;90.90;58.65;;;;;;;;;;5354168;26;20008;-54
2024/04/09 14:26:16;;;;;;;80.65;54.08;;;;;;;;;;5355480;26;21340;-54
2024/04/09 14:28:42;;;;;;;83.75;53.67;;;;;;;;;;5321168;26;20051;-55
2024/04/09 14:31:11;;;;;;;77.38;50.45;;;;;;;;;;5320966;26;20100;-54
2024/04/09 14:33:38;;;;;;;75.07;49.33;;;;;;;;;;5318885;26;20005;-52
2024/04/09 14:36:05;;;;;;;73.63;46.50;;;;;;;;;;5321746;26;20016;-56
2024/04/09 14:38:31;;;;;;;67.88;45.10;;;;;;;;;;5290523;26;20012;-54
2024/04/09 14:40:58;;;;;;;67.30;43.35;;;;;;;;;;5321155;26;20009;-55
2024/04/09 14:43:25;;;;;;;64.60;42.10;;;;;;;;;;5325449;26;21864;-54
2024/04/09 14:45:51;;;;;;;62.92;40.28;;;;;;;;;;5320511;26;20001;-56
2024/04/09 14:48:18;;;;;;;62.03;39.35;;;;;;;;;;5320841;26;20007;-52
2024/04/09 14:50:45;;;;;;;58.10;39.53;;;;;;;;;;5320557;26;20519;-49
2024/04/09 14:53:12;;;;;;;56.15;37.72;;;;;;;;;;5344872;26;20009;-54
2024/04/09 14:55:39;;;;;;;57.85;38.00;;;;;;;;;;5319383;26;20008;-56
2024/04/09 14:58:06;;;;;;;54.03;35.50;;;;;;;;;;5318065;26;20015;-55
2024/04/09 15:00:36;;;;;;;54.85;35.35;;;;;;;;;;5319954;26;20078;-55
2024/04/09 15:03:02;;;;;;;52.50;34.47;;;;;;;;;;5322475;26;20016;-52
2024/04/09 15:05:29;;;;;;;48.22;33.80;;;;;;;;;;5323544;26;20015;-56
2024/04/09 15:07:56;;;;;;;48.65;32.28;;;;;;;;;;5352738;26;20362;-54
2024/04/09 15:10:22;;;;;;;46.08;30.48;;;;;;;;;;5324909;26;20007;-55
2024/04/09 15:12:49;;;;;;;45.53;30.60;;;;;;;;;;5323286;26;20001;-51
2024/04/09 15:15:18;;;;;;;47.60;30.65;;;;;;;;;;5323586;26;20012;-55
2024/04/09 15:17:44;;;;;;;41.15;27.10;;;;;;;;;;5322607;26;20074;-55
2024/04/09 15:20:11;;;;;;;39.25;26.02;;;;;;;;;;5322563;26;19997;-57
2024/04/09 15:22:38;;;;;;;37.80;25.77;;;;;;;;;;5321402;26;20109;-54
2024/04/09 15:25:05;;;;;;;40.72;27.33;;;;;;;;;;5322579;26;20001;-54
2024/04/09 15:27:32;;;;;;;37.70;25.50;;;;;;;;;;5323175;26;20078;-52
2024/04/09 15:29:59;;;;;;;34.67;23.83;;;;;;;;;;5321025;26;20453;-54
2024/04/09 15:32:26;;;;;;;36.90;23.55;;;;;;;;;;5322412;26;20011;-52
2024/04/09 15:34:52;;;;;;;32.42;21.70;;;;;;;;;;5322468;26;21044;-54
2024/04/09 15:37:19;;;;;;;31.92;22.40;;;;;;;;;;5323183;26;20074;-55
2024/04/09 15:39:46;;;;;;;31.30;21.42;;;;;;;;;;5321907;26;20380;-55
2024/04/09 15:42:13;;;;;;;28.25;19.80;;;;;;;;;;5317373;26;20013;-53
2024/04/09 15:44:40;;;;;;;27.85;18.90;;;;;;;;;;5319867;26;20008;-55
2024/04/09 15:47:06;;;;;;;28.67;19.70;;;;;;;;;;5324013;26;20033;-57
2024/04/09 15:49:33;;;;;;;27.33;19.58;;;;;;;;;;5322555;26;20005;-53
2024/04/09 15:51:59;;;;;;;22.65;16.45;;;;;;;;;;5322394;26;20565;-55
2024/04/09 15:54:27;;;;;;;24.35;17.13;;;;;;;;;;5322794;26;20082;-50
2024/04/09 15:56:53;;;;;;;25.60;16.85;;;;;;;;;;5323659;26;20127;-55
2024/04/09 15:59:20;;;;;;;23.42;16.80;;;;;;;;;;5319411;26;20037;-57
2024/04/09 16:01:47;;;;;;;23.55;15.90;;;;;;;;;;5322793;26;20015;-56
2024/04/09 16:04:14;;;;;;;21.40;15.63;;;;;;;;;;5321960;26;20013;-56
2024/04/09 16:06:41;;;;;;;18.25;13.25;;;;;;;;;;5350233;26;20013;-54
2024/04/09 16:09:08;;;;;;;21.75;13.95;;;;;;;;;;5325247;26;20013;-56